sensor_id;sensor_type;location;lat;lon;timestamp;P1;durP1;ratioP1;P2;durP2;ratioP2
12059;SDS011;6091;51.432;6.880;2022-07-15T00:00:32;1.35;;;1.02;;
12059;SDS011;6091;51.432;6.880;2022-07-15T00:02:59;1.20;;;0.82;;
12059;SDS011;6091;51.432;6.880;2022-07-15T00:05:26;1.35;;;1.15;;
12059;SDS011;6091;51.432;6.880;2022-07-15T00:07:53;1.30;;;0.80;;
12059;SDS011;6091;51.432;6.880;2022-07-15T00:10:20;1.40;;;0.88;;
12059;SDS011;6091;51.432;6.880;2022-07-15T00:12:51;1.00;;;0.90;;
12059;SDS011;6091;51.432;6.880;2022-07-15T00:15:23;1.33;;;0.90;;
12059;SDS011;6091;51.432;6.880;2022-07-15T00:17:53;1.27;;;0.80;;
12059;SDS011;6091;51.432;6.880;2022-07-15T00:20:21;1.02;;;0.80;;
12059;SDS011;6091;51.432;6.880;2022-07-15T00:22:49;0.90;;;0.70;;
12059;SDS011;6091;51.432;6.880;2022-07-15T00:25:16;1.15;;;0.90;;
12059;SDS011;6091;51.432;6.880;2022-07-15T00:27:51;1.23;;;1.00;;
12059;SDS011;6091;51.432;6.880;2022-07-15T00:30:30;1.27;;;1.17;;
12059;SDS011;6091;51.432;6.880;2022-07-15T00:33:00;1.30;;;0.80;;
12059;SDS011;6091;51.432;6.880;2022-07-15T00:35:28;1.35;;;1.05;;
12059;SDS011;6091;51.432;6.880;2022-07-15T00:37:57;1.23;;;0.90;;
12059;SDS011;6091;51.432;6.880;2022-07-15T00:40:24;1.25;;;0.80;;
12059;SDS011;6091;51.432;6.880;2022-07-15T00:42:52;1.23;;;0.95;;
12059;SDS011;6091;51.432;6.880;2022-07-15T00:45:20;0.93;;;0.82;;
12059;SDS011;6091;51.432;6.880;2022-07-15T00:47:52;1.75;;;0.88;;
12059;SDS011;6091;51.432;6.880;2022-07-15T00:50:22;0.85;;;0.85;;
12059;SDS011;6091;51.432;6.880;2022-07-15T00:53:16;2.58;;;0.93;;
12059;SDS011;6091;51.432;6.880;2022-07-15T00:55:46;1.40;;;1.08;;
12059;SDS011;6091;51.432;6.880;2022-07-15T00:58:20;0.75;;;0.68;;
12059;SDS011;6091;51.432;6.880;2022-07-15T01:00:52;0.73;;;0.70;;
12059;SDS011;6091;51.432;6.880;2022-07-15T01:03:22;1.10;;;1.00;;
12059;SDS011;6091;51.432;6.880;2022-07-15T01:05:52;0.98;;;0.80;;
12059;SDS011;6091;51.432;6.880;2022-07-15T01:08:21;0.90;;;0.77;;
12059;SDS011;6091;51.432;6.880;2022-07-15T01:10:48;0.88;;;0.88;;
12059;SDS011;6091;51.432;6.880;2022-07-15T01:13:17;1.02;;;0.90;;
12059;SDS011;6091;51.432;6.880;2022-07-15T01:15:50;1.17;;;0.90;;
12059;SDS011;6091;51.432;6.880;2022-07-15T01:18:17;1.00;;;0.88;;
12059;SDS011;6091;51.432;6.880;2022-07-15T01:20:45;1.23;;;1.00;;
12059;SDS011;6091;51.432;6.880;2022-07-15T01:23:14;2.05;;;0.90;;
12059;SDS011;6091;51.432;6.880;2022-07-15T01:25:42;1.73;;;1.00;;
12059;SDS011;6091;51.432;6.880;2022-07-15T01:28:11;1.45;;;0.98;;
12059;SDS011;6091;51.432;6.880;2022-07-15T01:30:38;1.45;;;1.00;;
12059;SDS011;6091;51.432;6.880;2022-07-15T01:33:05;1.63;;;0.90;;
12059;SDS011;6091;51.432;6.880;2022-07-15T01:35:32;1.50;;;0.90;;
12059;SDS011;6091;51.432;6.880;2022-07-15T01:38:00;0.95;;;0.85;;
12059;SDS011;6091;51.432;6.880;2022-07-15T01:40:27;1.42;;;1.00;;
12059;SDS011;6091;51.432;6.880;2022-07-15T01:42:54;1.00;;;0.80;;
12059;SDS011;6091;51.432;6.880;2022-07-15T01:45:21;1.50;;;1.15;;
12059;SDS011;6091;51.432;6.880;2022-07-15T01:47:48;2.72;;;1.15;;
12059;SDS011;6091;51.432;6.880;2022-07-15T01:50:16;1.08;;;0.90;;
12059;SDS011;6091;51.432;6.880;2022-07-15T01:52:43;1.30;;;0.85;;
12059;SDS011;6091;51.432;6.880;2022-07-15T01:55:10;1.23;;;1.10;;
12059;SDS011;6091;51.432;6.880;2022-07-15T01:57:37;1.45;;;1.10;;
12059;SDS011;6091;51.432;6.880;2022-07-15T02:00:05;1.05;;;0.95;;
12059;SDS011;6091;51.432;6.880;2022-07-15T02:02:34;1.27;;;1.10;;
12059;SDS011;6091;51.432;6.880;2022-07-15T02:05:01;1.45;;;1.13;;
12059;SDS011;6091;51.432;6.880;2022-07-15T02:07:29;1.20;;;1.00;;
12059;SDS011;6091;51.432;6.880;2022-07-15T02:09:56;2.08;;;1.27;;
12059;SDS011;6091;51.432;6.880;2022-07-15T02:12:23;1.95;;;1.10;;
12059;SDS011;6091;51.432;6.880;2022-07-15T02:14:51;1.77;;;1.10;;
12059;SDS011;6091;51.432;6.880;2022-07-15T02:17:18;1.98;;;1.13;;
12059;SDS011;6091;51.432;6.880;2022-07-15T02:19:46;1.90;;;1.10;;
12059;SDS011;6091;51.432;6.880;2022-07-15T02:22:13;1.08;;;0.90;;
12059;SDS011;6091;51.432;6.880;2022-07-15T02:24:39;1.15;;;0.77;;
12059;SDS011;6091;51.432;6.880;2022-07-15T02:27:06;1.38;;;1.10;;
12059;SDS011;6091;51.432;6.880;2022-07-15T02:29:34;1.73;;;0.90;;
12059;SDS011;6091;51.432;6.880;2022-07-15T02:32:01;1.90;;;1.00;;
12059;SDS011;6091;51.432;6.880;2022-07-15T02:34:28;1.05;;;0.80;;
12059;SDS011;6091;51.432;6.880;2022-07-15T02:36:55;1.23;;;0.85;;
12059;SDS011;6091;51.432;6.880;2022-07-15T02:39:22;0.95;;;0.80;;
12059;SDS011;6091;51.432;6.880;2022-07-15T02:41:49;1.75;;;1.17;;
12059;SDS011;6091;51.432;6.880;2022-07-15T02:44:16;1.77;;;0.82;;
12059;SDS011;6091;51.432;6.880;2022-07-15T02:46:43;1.27;;;1.00;;
12059;SDS011;6091;51.432;6.880;2022-07-15T02:49:10;1.25;;;0.75;;
12059;SDS011;6091;51.432;6.880;2022-07-15T02:51:37;1.42;;;1.30;;
12059;SDS011;6091;51.432;6.880;2022-07-15T02:54:04;1.40;;;1.00;;
12059;SDS011;6091;51.432;6.880;2022-07-15T02:56:32;1.48;;;0.90;;
12059;SDS011;6091;51.432;6.880;2022-07-15T02:58:59;1.85;;;1.10;;
12059;SDS011;6091;51.432;6.880;2022-07-15T03:01:26;1.70;;;1.10;;
12059;SDS011;6091;51.432;6.880;2022-07-15T03:03:53;2.15;;;1.20;;
12059;SDS011;6091;51.432;6.880;2022-07-15T03:06:22;1.23;;;1.00;;
12059;SDS011;6091;51.432;6.880;2022-07-15T03:08:49;2.05;;;1.00;;
12059;SDS011;6091;51.432;6.880;2022-07-15T03:11:16;1.73;;;0.98;;
12059;SDS011;6091;51.432;6.880;2022-07-15T03:13:43;1.52;;;1.00;;
12059;SDS011;6091;51.432;6.880;2022-07-15T03:16:10;1.00;;;0.90;;
12059;SDS011;6091;51.432;6.880;2022-07-15T03:18:37;1.58;;;0.90;;
12059;SDS011;6091;51.432;6.880;2022-07-15T03:21:04;1.55;;;1.00;;
12059;SDS011;6091;51.432;6.880;2022-07-15T03:23:31;0.98;;;0.88;;
12059;SDS011;6091;51.432;6.880;2022-07-15T03:25:58;0.95;;;0.85;;
12059;SDS011;6091;51.432;6.880;2022-07-15T03:28:25;1.27;;;0.98;;
12059;SDS011;6091;51.432;6.880;2022-07-15T03:30:52;1.55;;;0.90;;
12059;SDS011;6091;51.432;6.880;2022-07-15T03:33:19;1.65;;;1.20;;
12059;SDS011;6091;51.432;6.880;2022-07-15T03:35:46;2.08;;;1.38;;
12059;SDS011;6091;51.432;6.880;2022-07-15T03:38:13;1.35;;;1.10;;
12059;SDS011;6091;51.432;6.880;2022-07-15T03:40:40;1.60;;;1.05;;
12059;SDS011;6091;51.432;6.880;2022-07-15T03:43:10;1.85;;;1.00;;
12059;SDS011;6091;51.432;6.880;2022-07-15T03:45:37;1.08;;;0.90;;
12059;SDS011;6091;51.432;6.880;2022-07-15T03:48:07;1.48;;;1.17;;
12059;SDS011;6091;51.432;6.880;2022-07-15T03:50:34;1.10;;;0.88;;
12059;SDS011;6091;51.432;6.880;2022-07-15T03:53:02;2.40;;;1.02;;
12059;SDS011;6091;51.432;6.880;2022-07-15T03:55:29;1.90;;;1.20;;
12059;SDS011;6091;51.432;6.880;2022-07-15T03:57:56;1.90;;;1.20;;
12059;SDS011;6091;51.432;6.880;2022-07-15T04:00:23;1.35;;;1.00;;
12059;SDS011;6091;51.432;6.880;2022-07-15T04:02:51;1.45;;;1.10;;
12059;SDS011;6091;51.432;6.880;2022-07-15T04:05:18;1.10;;;0.90;;
12059;SDS011;6091;51.432;6.880;2022-07-15T04:07:45;1.70;;;1.20;;
12059;SDS011;6091;51.432;6.880;2022-07-15T04:10:12;1.50;;;1.10;;
12059;SDS011;6091;51.432;6.880;2022-07-15T04:12:40;1.83;;;1.00;;
12059;SDS011;6091;51.432;6.880;2022-07-15T04:15:10;1.20;;;1.00;;
12059;SDS011;6091;51.432;6.880;2022-07-15T04:17:43;1.27;;;1.00;;
12059;SDS011;6091;51.432;6.880;2022-07-15T04:20:10;2.67;;;1.20;;
12059;SDS011;6091;51.432;6.880;2022-07-15T04:22:42;1.40;;;1.00;;
12059;SDS011;6091;51.432;6.880;2022-07-15T04:25:11;1.70;;;0.90;;
12059;SDS011;6091;51.432;6.880;2022-07-15T04:27:43;2.17;;;1.00;;
12059;SDS011;6091;51.432;6.880;2022-07-15T04:30:11;1.30;;;1.20;;
12059;SDS011;6091;51.432;6.880;2022-07-15T04:32:39;1.63;;;1.30;;
12059;SDS011;6091;51.432;6.880;2022-07-15T04:35:06;1.95;;;1.20;;
12059;SDS011;6091;51.432;6.880;2022-07-15T04:37:34;1.08;;;0.90;;
12059;SDS011;6091;51.432;6.880;2022-07-15T04:40:01;1.42;;;1.10;;
12059;SDS011;6091;51.432;6.880;2022-07-15T04:42:29;1.48;;;1.00;;
12059;SDS011;6091;51.432;6.880;2022-07-15T04:44:56;1.30;;;0.95;;
12059;SDS011;6091;51.432;6.880;2022-07-15T04:47:23;1.10;;;1.00;;
12059;SDS011;6091;51.432;6.880;2022-07-15T04:49:50;1.38;;;1.00;;
12059;SDS011;6091;51.432;6.880;2022-07-15T04:52:35;1.48;;;1.10;;
12059;SDS011;6091;51.432;6.880;2022-07-15T04:55:02;1.13;;;1.00;;
12059;SDS011;6091;51.432;6.880;2022-07-15T04:57:30;1.33;;;0.90;;
12059;SDS011;6091;51.432;6.880;2022-07-15T04:59:57;1.75;;;1.13;;
12059;SDS011;6091;51.432;6.880;2022-07-15T05:02:24;1.60;;;0.93;;
12059;SDS011;6091;51.432;6.880;2022-07-15T05:04:52;1.50;;;0.80;;
12059;SDS011;6091;51.432;6.880;2022-07-15T05:07:19;2.08;;;1.13;;
12059;SDS011;6091;51.432;6.880;2022-07-15T05:09:46;3.17;;;1.55;;
12059;SDS011;6091;51.432;6.880;2022-07-15T05:12:13;1.98;;;1.02;;
12059;SDS011;6091;51.432;6.880;2022-07-15T05:14:39;1.50;;;1.00;;
12059;SDS011;6091;51.432;6.880;2022-07-15T05:17:07;2.38;;;1.38;;
12059;SDS011;6091;51.432;6.880;2022-07-15T05:19:35;1.50;;;1.17;;
12059;SDS011;6091;51.432;6.880;2022-07-15T05:22:02;1.55;;;1.05;;
12059;SDS011;6091;51.432;6.880;2022-07-15T05:24:30;1.20;;;0.75;;
12059;SDS011;6091;51.432;6.880;2022-07-15T05:26:57;2.35;;;1.38;;
12059;SDS011;6091;51.432;6.880;2022-07-15T05:29:25;0.98;;;0.88;;
12059;SDS011;6091;51.432;6.880;2022-07-15T05:31:52;1.20;;;0.90;;
12059;SDS011;6091;51.432;6.880;2022-07-15T05:34:19;1.40;;;1.00;;
12059;SDS011;6091;51.432;6.880;2022-07-15T05:36:46;1.40;;;0.90;;
12059;SDS011;6091;51.432;6.880;2022-07-15T05:39:13;1.55;;;1.10;;
12059;SDS011;6091;51.432;6.880;2022-07-15T05:41:41;2.20;;;0.90;;
12059;SDS011;6091;51.432;6.880;2022-07-15T05:44:13;1.85;;;0.88;;
12059;SDS011;6091;51.432;6.880;2022-07-15T05:46:41;1.65;;;1.00;;
12059;SDS011;6091;51.432;6.880;2022-07-15T05:49:08;2.10;;;1.40;;
12059;SDS011;6091;51.432;6.880;2022-07-15T05:51:36;2.63;;;1.20;;
12059;SDS011;6091;51.432;6.880;2022-07-15T05:54:03;3.00;;;1.40;;
12059;SDS011;6091;51.432;6.880;2022-07-15T05:56:30;1.35;;;0.95;;
12059;SDS011;6091;51.432;6.880;2022-07-15T05:58:57;2.22;;;1.10;;
12059;SDS011;6091;51.432;6.880;2022-07-15T06:01:24;1.20;;;1.10;;
12059;SDS011;6091;51.432;6.880;2022-07-15T06:03:51;1.95;;;1.20;;
12059;SDS011;6091;51.432;6.880;2022-07-15T06:06:18;3.42;;;1.50;;
12059;SDS011;6091;51.432;6.880;2022-07-15T06:08:45;3.53;;;1.85;;
12059;SDS011;6091;51.432;6.880;2022-07-15T06:11:12;2.85;;;1.38;;
12059;SDS011;6091;51.432;6.880;2022-07-15T06:13:40;1.45;;;1.00;;
12059;SDS011;6091;51.432;6.880;2022-07-15T06:16:07;2.13;;;1.10;;
12059;SDS011;6091;51.432;6.880;2022-07-15T06:18:34;2.40;;;1.17;;
12059;SDS011;6091;51.432;6.880;2022-07-15T06:21:01;2.72;;;1.20;;
12059;SDS011;6091;51.432;6.880;2022-07-15T06:23:28;2.05;;;1.20;;
12059;SDS011;6091;51.432;6.880;2022-07-15T06:25:55;1.92;;;1.23;;
12059;SDS011;6091;51.432;6.880;2022-07-15T06:28:23;2.88;;;1.35;;
12059;SDS011;6091;51.432;6.880;2022-07-15T06:30:50;2.30;;;1.42;;
12059;SDS011;6091;51.432;6.880;2022-07-15T06:33:18;2.35;;;1.33;;
12059;SDS011;6091;51.432;6.880;2022-07-15T06:35:47;1.98;;;1.08;;
12059;SDS011;6091;51.432;6.880;2022-07-15T06:38:14;2.38;;;1.30;;
12059;SDS011;6091;51.432;6.880;2022-07-15T06:40:41;3.67;;;1.38;;
12059;SDS011;6091;51.432;6.880;2022-07-15T06:43:09;1.65;;;0.93;;
12059;SDS011;6091;51.432;6.880;2022-07-15T06:45:37;2.60;;;1.30;;
12059;SDS011;6091;51.432;6.880;2022-07-15T06:48:06;2.72;;;1.20;;
12059;SDS011;6091;51.432;6.880;2022-07-15T06:50:33;3.88;;;1.30;;
12059;SDS011;6091;51.432;6.880;2022-07-15T06:53:00;2.42;;;1.25;;
12059;SDS011;6091;51.432;6.880;2022-07-15T06:55:28;2.40;;;1.20;;
12059;SDS011;6091;51.432;6.880;2022-07-15T06:57:55;2.28;;;1.20;;
12059;SDS011;6091;51.432;6.880;2022-07-15T07:00:22;2.30;;;1.30;;
12059;SDS011;6091;51.432;6.880;2022-07-15T07:02:49;2.63;;;1.45;;
12059;SDS011;6091;51.432;6.880;2022-07-15T07:05:16;2.75;;;1.40;;
12059;SDS011;6091;51.432;6.880;2022-07-15T07:07:44;2.25;;;1.40;;
12059;SDS011;6091;51.432;6.880;2022-07-15T07:10:12;2.20;;;1.63;;
12059;SDS011;6091;51.432;6.880;2022-07-15T07:12:39;2.10;;;1.10;;
12059;SDS011;6091;51.432;6.880;2022-07-15T07:15:06;2.15;;;1.38;;
12059;SDS011;6091;51.432;6.880;2022-07-15T07:17:33;2.17;;;1.15;;
12059;SDS011;6091;51.432;6.880;2022-07-15T07:20:00;2.17;;;1.60;;
12059;SDS011;6091;51.432;6.880;2022-07-15T07:22:28;1.42;;;1.15;;
12059;SDS011;6091;51.432;6.880;2022-07-15T07:24:55;2.55;;;1.30;;
12059;SDS011;6091;51.432;6.880;2022-07-15T07:27:26;2.88;;;1.40;;
12059;SDS011;6091;51.432;6.880;2022-07-15T07:29:53;2.45;;;1.45;;
12059;SDS011;6091;51.432;6.880;2022-07-15T07:32:20;3.28;;;1.45;;
12059;SDS011;6091;51.432;6.880;2022-07-15T07:34:47;4.25;;;1.52;;
12059;SDS011;6091;51.432;6.880;2022-07-15T07:37:14;2.53;;;1.50;;
12059;SDS011;6091;51.432;6.880;2022-07-15T07:39:42;3.58;;;1.30;;
12059;SDS011;6091;51.432;6.880;2022-07-15T07:42:10;4.07;;;1.42;;
12059;SDS011;6091;51.432;6.880;2022-07-15T07:44:40;3.90;;;1.60;;
12059;SDS011;6091;51.432;6.880;2022-07-15T07:47:07;1.65;;;1.08;;
12059;SDS011;6091;51.432;6.880;2022-07-15T07:49:39;2.85;;;1.30;;
12059;SDS011;6091;51.432;6.880;2022-07-15T07:52:07;2.22;;;1.30;;
12059;SDS011;6091;51.432;6.880;2022-07-15T07:54:33;3.80;;;1.40;;
12059;SDS011;6091;51.432;6.880;2022-07-15T07:57:01;2.60;;;1.27;;
12059;SDS011;6091;51.432;6.880;2022-07-15T07:59:31;2.13;;;1.30;;
12059;SDS011;6091;51.432;6.880;2022-07-15T08:01:59;3.28;;;1.63;;
12059;SDS011;6091;51.432;6.880;2022-07-15T08:04:26;5.70;;;1.45;;
12059;SDS011;6091;51.432;6.880;2022-07-15T08:06:55;2.80;;;1.20;;
12059;SDS011;6091;51.432;6.880;2022-07-15T08:09:23;2.97;;;1.30;;
12059;SDS011;6091;51.432;6.880;2022-07-15T08:11:53;2.63;;;1.48;;
12059;SDS011;6091;51.432;6.880;2022-07-15T08:14:20;3.33;;;1.42;;
12059;SDS011;6091;51.432;6.880;2022-07-15T08:16:50;2.25;;;1.00;;
12059;SDS011;6091;51.432;6.880;2022-07-15T08:19:18;3.58;;;1.52;;
12059;SDS011;6091;51.432;6.880;2022-07-15T08:21:46;3.65;;;1.40;;
12059;SDS011;6091;51.432;6.880;2022-07-15T08:24:13;4.28;;;1.80;;
12059;SDS011;6091;51.432;6.880;2022-07-15T08:26:40;3.97;;;1.77;;
12059;SDS011;6091;51.432;6.880;2022-07-15T08:29:07;3.22;;;1.52;;
12059;SDS011;6091;51.432;6.880;2022-07-15T08:31:34;3.40;;;1.48;;
12059;SDS011;6091;51.432;6.880;2022-07-15T08:34:03;4.63;;;1.70;;
12059;SDS011;6091;51.432;6.880;2022-07-15T08:36:34;3.17;;;1.42;;
12059;SDS011;6091;51.432;6.880;2022-07-15T08:39:01;3.40;;;1.33;;
12059;SDS011;6091;51.432;6.880;2022-07-15T08:41:35;3.45;;;1.70;;
12059;SDS011;6091;51.432;6.880;2022-07-15T08:44:03;3.80;;;1.67;;
12059;SDS011;6091;51.432;6.880;2022-07-15T08:46:32;4.40;;;1.70;;
12059;SDS011;6091;51.432;6.880;2022-07-15T08:49:06;4.15;;;1.40;;
12059;SDS011;6091;51.432;6.880;2022-07-15T08:51:41;3.13;;;1.30;;
12059;SDS011;6091;51.432;6.880;2022-07-15T08:54:11;2.58;;;1.30;;
12059;SDS011;6091;51.432;6.880;2022-07-15T08:56:41;2.83;;;1.67;;
12059;SDS011;6091;51.432;6.880;2022-07-15T08:59:12;2.65;;;1.58;;
12059;SDS011;6091;51.432;6.880;2022-07-15T09:01:44;2.70;;;1.55;;
12059;SDS011;6091;51.432;6.880;2022-07-15T09:04:15;3.50;;;1.45;;
12059;SDS011;6091;51.432;6.880;2022-07-15T09:06:44;3.83;;;1.35;;
12059;SDS011;6091;51.432;6.880;2022-07-15T09:12:02;3.80;;;1.67;;
12059;SDS011;6091;51.432;6.880;2022-07-15T09:14:43;2.80;;;1.55;;
12059;SDS011;6091;51.432;6.880;2022-07-15T09:22:50;3.28;;;1.75;;
12059;SDS011;6091;51.432;6.880;2022-07-15T09:25:22;3.40;;;1.50;;
12059;SDS011;6091;51.432;6.880;2022-07-15T09:27:51;2.13;;;1.42;;
12059;SDS011;6091;51.432;6.880;2022-07-15T09:30:23;1.90;;;1.17;;
12059;SDS011;6091;51.432;6.880;2022-07-15T09:33:24;2.40;;;1.30;;
12059;SDS011;6091;51.432;6.880;2022-07-15T09:36:21;3.63;;;1.55;;
12059;SDS011;6091;51.432;6.880;2022-07-15T09:39:00;3.78;;;1.70;;
12059;SDS011;6091;51.432;6.880;2022-07-15T09:41:34;2.05;;;1.20;;
12059;SDS011;6091;51.432;6.880;2022-07-15T09:44:10;2.65;;;1.25;;
12059;SDS011;6091;51.432;6.880;2022-07-15T09:46:52;2.95;;;1.42;;
12059;SDS011;6091;51.432;6.880;2022-07-15T09:51:55;2.20;;;1.25;;
12059;SDS011;6091;51.432;6.880;2022-07-15T09:54:34;2.22;;;1.27;;
12059;SDS011;6091;51.432;6.880;2022-07-15T09:57:05;2.90;;;1.52;;
12059;SDS011;6091;51.432;6.880;2022-07-15T09:59:35;1.83;;;1.20;;
12059;SDS011;6091;51.432;6.880;2022-07-15T10:02:06;2.10;;;1.20;;
12059;SDS011;6091;51.432;6.880;2022-07-15T10:04:35;2.55;;;1.50;;
12059;SDS011;6091;51.432;6.880;2022-07-15T10:07:04;2.25;;;1.20;;
12059;SDS011;6091;51.432;6.880;2022-07-15T10:09:52;2.25;;;1.30;;
12059;SDS011;6091;51.432;6.880;2022-07-15T10:12:23;1.00;;;0.90;;
12059;SDS011;6091;51.432;6.880;2022-07-15T10:15:13;3.35;;;1.30;;
12059;SDS011;6091;51.432;6.880;2022-07-15T10:18:17;3.03;;;1.45;;
12059;SDS011;6091;51.432;6.880;2022-07-15T10:24:33;1.92;;;0.95;;
12059;SDS011;6091;51.432;6.880;2022-07-15T10:30:11;3.22;;;1.10;;
12059;SDS011;6091;51.432;6.880;2022-07-15T10:38:35;2.63;;;1.00;;
12059;SDS011;6091;51.432;6.880;2022-07-15T10:41:11;2.42;;;1.30;;
12059;SDS011;6091;51.432;6.880;2022-07-15T10:46:21;3.95;;;0.95;;
12059;SDS011;6091;51.432;6.880;2022-07-15T10:56:58;2.25;;;1.00;;
12059;SDS011;6091;51.432;6.880;2022-07-15T10:59:27;1.48;;;1.00;;
12059;SDS011;6091;51.432;6.880;2022-07-15T11:02:14;1.08;;;0.98;;
12059;SDS011;6091;51.432;6.880;2022-07-15T11:04:44;2.03;;;1.00;;
12059;SDS011;6091;51.432;6.880;2022-07-15T11:17:42;1.00;;;0.90;;
12059;SDS011;6091;51.432;6.880;2022-07-15T11:20:34;1.35;;;0.80;;
12059;SDS011;6091;51.432;6.880;2022-07-15T11:23:05;2.65;;;1.10;;
12059;SDS011;6091;51.432;6.880;2022-07-15T11:25:38;1.10;;;0.90;;
12059;SDS011;6091;51.432;6.880;2022-07-15T11:28:11;1.48;;;0.85;;
12059;SDS011;6091;51.432;6.880;2022-07-15T11:30:41;1.58;;;0.77;;
12059;SDS011;6091;51.432;6.880;2022-07-15T11:33:11;1.77;;;0.88;;
12059;SDS011;6091;51.432;6.880;2022-07-15T11:38:23;1.10;;;0.70;;
12059;SDS011;6091;51.432;6.880;2022-07-15T11:40:55;1.55;;;0.90;;
12059;SDS011;6091;51.432;6.880;2022-07-15T11:44:01;0.65;;;0.65;;
12059;SDS011;6091;51.432;6.880;2022-07-15T11:46:52;0.90;;;0.80;;
12059;SDS011;6091;51.432;6.880;2022-07-15T11:52:02;0.52;;;0.52;;
12059;SDS011;6091;51.432;6.880;2022-07-15T11:54:35;1.13;;;0.80;;
12059;SDS011;6091;51.432;6.880;2022-07-15T11:57:05;0.82;;;0.52;;
12059;SDS011;6091;51.432;6.880;2022-07-15T11:59:35;2.83;;;1.00;;
12059;SDS011;6091;51.432;6.880;2022-07-15T12:02:04;0.70;;;0.70;;
12059;SDS011;6091;51.432;6.880;2022-07-15T12:04:32;1.65;;;0.80;;
12059;SDS011;6091;51.432;6.880;2022-07-15T12:07:01;1.00;;;0.80;;
12059;SDS011;6091;51.432;6.880;2022-07-15T12:09:42;0.63;;;0.60;;
12059;SDS011;6091;51.432;6.880;2022-07-15T12:12:11;3.20;;;0.75;;
12059;SDS011;6091;51.432;6.880;2022-07-15T12:14:39;4.38;;;0.80;;
12059;SDS011;6091;51.432;6.880;2022-07-15T12:17:08;0.70;;;0.70;;
12059;SDS011;6091;51.432;6.880;2022-07-15T12:19:36;2.35;;;0.75;;
12059;SDS011;6091;51.432;6.880;2022-07-15T12:22:04;1.42;;;0.80;;
12059;SDS011;6091;51.432;6.880;2022-07-15T12:24:42;0.95;;;0.75;;
12059;SDS011;6091;51.432;6.880;2022-07-15T12:27:13;1.05;;;0.85;;
12059;SDS011;6091;51.432;6.880;2022-07-15T12:29:40;1.15;;;0.70;;
12059;SDS011;6091;51.432;6.880;2022-07-15T12:32:29;1.42;;;0.73;;
12059;SDS011;6091;51.432;6.880;2022-07-15T12:34:57;0.95;;;0.82;;
12059;SDS011;6091;51.432;6.880;2022-07-15T12:40:20;1.90;;;0.90;;
12059;SDS011;6091;51.432;6.880;2022-07-15T12:42:50;1.10;;;0.80;;
12059;SDS011;6091;51.432;6.880;2022-07-15T12:45:23;1.02;;;0.82;;
12059;SDS011;6091;51.432;6.880;2022-07-15T12:53:25;0.60;;;0.60;;
12059;SDS011;6091;51.432;6.880;2022-07-15T12:56:02;0.77;;;0.75;;
12059;SDS011;6091;51.432;6.880;2022-07-15T12:58:30;0.75;;;0.70;;
12059;SDS011;6091;51.432;6.880;2022-07-15T13:01:09;0.80;;;0.60;;
12059;SDS011;6091;51.432;6.880;2022-07-15T13:03:41;0.70;;;0.70;;
12059;SDS011;6091;51.432;6.880;2022-07-15T13:06:08;0.77;;;0.73;;
12059;SDS011;6091;51.432;6.880;2022-07-15T13:08:39;0.60;;;0.60;;
12059;SDS011;6091;51.432;6.880;2022-07-15T13:11:07;1.05;;;0.60;;
12059;SDS011;6091;51.432;6.880;2022-07-15T13:13:36;0.80;;;0.70;;
12059;SDS011;6091;51.432;6.880;2022-07-15T13:16:05;1.20;;;0.90;;
12059;SDS011;6091;51.432;6.880;2022-07-15T13:18:34;0.60;;;0.60;;
12059;SDS011;6091;51.432;6.880;2022-07-15T13:21:03;0.60;;;0.60;;
12059;SDS011;6091;51.432;6.880;2022-07-15T13:23:33;0.98;;;0.77;;
12059;SDS011;6091;51.432;6.880;2022-07-15T13:26:00;1.10;;;0.80;;
12059;SDS011;6091;51.432;6.880;2022-07-15T13:28:27;1.38;;;0.82;;
12059;SDS011;6091;51.432;6.880;2022-07-15T13:30:55;0.80;;;0.70;;
12059;SDS011;6091;51.432;6.880;2022-07-15T13:33:22;0.88;;;0.60;;
12059;SDS011;6091;51.432;6.880;2022-07-15T13:35:52;0.80;;;0.70;;
12059;SDS011;6091;51.432;6.880;2022-07-15T13:38:22;1.15;;;0.80;;
12059;SDS011;6091;51.432;6.880;2022-07-15T13:40:49;0.85;;;0.80;;
12059;SDS011;6091;51.432;6.880;2022-07-15T13:43:16;1.02;;;0.80;;
12059;SDS011;6091;51.432;6.880;2022-07-15T13:45:46;1.00;;;0.65;;
12059;SDS011;6091;51.432;6.880;2022-07-15T13:48:14;1.60;;;0.70;;
12059;SDS011;6091;51.432;6.880;2022-07-15T13:50:41;1.48;;;0.80;;
12059;SDS011;6091;51.432;6.880;2022-07-15T13:53:26;1.38;;;0.63;;
12059;SDS011;6091;51.432;6.880;2022-07-15T13:55:54;0.52;;;0.50;;
12059;SDS011;6091;51.432;6.880;2022-07-15T13:58:21;0.88;;;0.68;;
12059;SDS011;6091;51.432;6.880;2022-07-15T14:00:49;1.98;;;0.70;;
12059;SDS011;6091;51.432;6.880;2022-07-15T14:03:16;1.00;;;0.70;;
12059;SDS011;6091;51.432;6.880;2022-07-15T14:05:44;0.80;;;0.80;;
12059;SDS011;6091;51.432;6.880;2022-07-15T14:08:11;1.65;;;0.80;;
12059;SDS011;6091;51.432;6.880;2022-07-15T14:10:38;0.68;;;0.63;;
12059;SDS011;6091;51.432;6.880;2022-07-15T14:13:05;2.30;;;0.60;;
12059;SDS011;6091;51.432;6.880;2022-07-15T14:15:32;0.75;;;0.63;;
12059;SDS011;6091;51.432;6.880;2022-07-15T14:18:04;1.00;;;0.70;;
12059;SDS011;6091;51.432;6.880;2022-07-15T14:20:32;1.58;;;0.80;;
12059;SDS011;6091;51.432;6.880;2022-07-15T14:23:01;1.30;;;1.00;;
12059;SDS011;6091;51.432;6.880;2022-07-15T14:25:29;2.00;;;1.00;;
12059;SDS011;6091;51.432;6.880;2022-07-15T14:27:57;1.63;;;0.95;;
12059;SDS011;6091;51.432;6.880;2022-07-15T14:30:24;1.10;;;0.80;;
12059;SDS011;6091;51.432;6.880;2022-07-15T14:32:53;1.63;;;1.00;;
12059;SDS011;6091;51.432;6.880;2022-07-15T14:35:22;1.38;;;0.65;;
12059;SDS011;6091;51.432;6.880;2022-07-15T14:37:49;1.38;;;0.98;;
12059;SDS011;6091;51.432;6.880;2022-07-15T14:40:17;1.30;;;0.82;;
12059;SDS011;6091;51.432;6.880;2022-07-15T14:42:45;0.88;;;0.70;;
12059;SDS011;6091;51.432;6.880;2022-07-15T14:45:12;0.88;;;0.70;;
12059;SDS011;6091;51.432;6.880;2022-07-15T14:47:40;1.05;;;0.90;;
12059;SDS011;6091;51.432;6.880;2022-07-15T14:50:07;0.75;;;0.70;;
12059;SDS011;6091;51.432;6.880;2022-07-15T14:52:35;2.22;;;0.93;;
12059;SDS011;6091;51.432;6.880;2022-07-15T14:55:02;1.40;;;0.80;;
12059;SDS011;6091;51.432;6.880;2022-07-15T14:57:30;4.32;;;0.90;;
12059;SDS011;6091;51.432;6.880;2022-07-15T14:59:57;1.67;;;0.80;;
12059;SDS011;6091;51.432;6.880;2022-07-15T15:02:28;1.05;;;0.80;;
12059;SDS011;6091;51.432;6.880;2022-07-15T15:04:55;1.10;;;0.77;;
12059;SDS011;6091;51.432;6.880;2022-07-15T15:07:22;0.95;;;0.68;;
12059;SDS011;6091;51.432;6.880;2022-07-15T15:09:49;1.00;;;0.90;;
12059;SDS011;6091;51.432;6.880;2022-07-15T15:12:16;0.93;;;0.80;;
12059;SDS011;6091;51.432;6.880;2022-07-15T15:14:49;1.63;;;0.70;;
12059;SDS011;6091;51.432;6.880;2022-07-15T15:17:16;0.80;;;0.75;;
12059;SDS011;6091;51.432;6.880;2022-07-15T15:19:43;1.08;;;0.95;;
12059;SDS011;6091;51.432;6.880;2022-07-15T15:22:11;1.45;;;0.80;;
12059;SDS011;6091;51.432;6.880;2022-07-15T15:24:38;1.80;;;0.70;;
12059;SDS011;6091;51.432;6.880;2022-07-15T15:27:05;1.00;;;0.75;;
12059;SDS011;6091;51.432;6.880;2022-07-15T15:29:36;0.98;;;0.98;;
12059;SDS011;6091;51.432;6.880;2022-07-15T15:32:04;0.80;;;0.80;;
12059;SDS011;6091;51.432;6.880;2022-07-15T15:34:33;1.00;;;0.70;;
12059;SDS011;6091;51.432;6.880;2022-07-15T15:37:00;3.13;;;0.80;;
12059;SDS011;6091;51.432;6.880;2022-07-15T15:39:27;2.50;;;1.10;;
12059;SDS011;6091;51.432;6.880;2022-07-15T15:41:54;1.48;;;0.98;;
12059;SDS011;6091;51.432;6.880;2022-07-15T15:44:21;0.82;;;0.70;;
12059;SDS011;6091;51.432;6.880;2022-07-15T15:46:49;1.08;;;0.90;;
12059;SDS011;6091;51.432;6.880;2022-07-15T15:49:19;1.23;;;0.70;;
12059;SDS011;6091;51.432;6.880;2022-07-15T15:51:46;1.02;;;0.80;;
12059;SDS011;6091;51.432;6.880;2022-07-15T15:54:13;0.77;;;0.77;;
12059;SDS011;6091;51.432;6.880;2022-07-15T15:56:46;1.52;;;0.73;;
12059;SDS011;6091;51.432;6.880;2022-07-15T15:59:13;1.05;;;0.80;;
12059;SDS011;6091;51.432;6.880;2022-07-15T16:01:41;1.08;;;0.68;;
12059;SDS011;6091;51.432;6.880;2022-07-15T16:04:08;0.80;;;0.80;;
12059;SDS011;6091;51.432;6.880;2022-07-15T16:06:35;0.75;;;0.68;;
12059;SDS011;6091;51.432;6.880;2022-07-15T16:09:02;0.70;;;0.70;;
12059;SDS011;6091;51.432;6.880;2022-07-15T16:11:30;1.27;;;0.70;;